sensor_id;sensor_type;location;lat;lon;timestamp;temperature;humidity
12504;DHT22;6316;48.118;-1.690;2023-06-26T00:01:42;20.40;94.30
12504;DHT22;6316;48.118;-1.690;2023-06-26T00:04:08;20.40;94.30
12504;DHT22;6316;48.118;-1.690;2023-06-26T00:06:40;20.40;94.30
12504;DHT22;6316;48.118;-1.690;2023-06-26T00:09:05;20.30;94.30
12504;DHT22;6316;48.118;-1.690;2023-06-26T00:11:32;20.30;94.30
12504;DHT22;6316;48.118;-1.690;2023-06-26T00:14:01;20.30;94.40
12504;DHT22;6316;48.118;-1.690;2023-06-26T00:16:28;20.20;94.40
12504;DHT22;6316;48.118;-1.690;2023-06-26T00:18:56;20.20;94.40
12504;DHT22;6316;48.118;-1.690;2023-06-26T00:21:22;20.20;94.40
12504;DHT22;6316;48.118;-1.690;2023-06-26T00:23:47;20.10;94.40
12504;DHT22;6316;48.118;-1.690;2023-06-26T00:26:13;20.10;94.50
12504;DHT22;6316;48.118;-1.690;2023-06-26T00:28:39;20.10;94.50
12504;DHT22;6316;48.118;-1.690;2023-06-26T00:31:04;20.00;94.50
12504;DHT22;6316;48.118;-1.690;2023-06-26T00:33:30;20.00;94.50
12504;DHT22;6316;48.118;-1.690;2023-06-26T00:35:55;20.00;94.60
12504;DHT22;6316;48.118;-1.690;2023-06-26T00:38:21;19.90;94.60
12504;DHT22;6316;48.118;-1.690;2023-06-26T00:40:47;19.90;94.60
12504;DHT22;6316;48.118;-1.690;2023-06-26T00:43:12;19.80;94.60
12504;DHT22;6316;48.118;-1.690;2023-06-26T00:45:38;19.80;94.70
12504;DHT22;6316;48.118;-1.690;2023-06-26T00:48:04;19.80;94.70
12504;DHT22;6316;48.118;-1.690;2023-06-26T00:50:31;19.70;94.70
12504;DHT22;6316;48.118;-1.690;2023-06-26T00:52:56;19.70;94.70
12504;DHT22;6316;48.118;-1.690;2023-06-26T00:55:28;19.70;94.70
12504;DHT22;6316;48.118;-1.690;2023-06-26T00:57:54;19.60;94.70
12504;DHT22;6316;48.118;-1.690;2023-06-26T01:00:20;19.60;94.80
12504;DHT22;6316;48.118;-1.690;2023-06-26T01:02:46;19.60;94.80
12504;DHT22;6316;48.118;-1.690;2023-06-26T01:05:13;19.60;94.80
12504;DHT22;6316;48.118;-1.690;2023-06-26T01:07:49;19.60;94.80
12504;DHT22;6316;48.118;-1.690;2023-06-26T01:10:15;19.50;94.80
12504;DHT22;6316;48.118;-1.690;2023-06-26T01:12:41;19.50;94.80
12504;DHT22;6316;48.118;-1.690;2023-06-26T01:15:07;19.50;94.90
12504;DHT22;6316;48.118;-1.690;2023-06-26T01:17:33;19.50;94.90
12504;DHT22;6316;48.118;-1.690;2023-06-26T01:20:00;19.40;94.90
12504;DHT22;6316;48.118;-1.690;2023-06-26T01:22:53;19.40;94.90
12504;DHT22;6316;48.118;-1.690;2023-06-26T01:25:41;19.40;94.90
12504;DHT22;6316;48.118;-1.690;2023-06-26T01:28:10;19.40;94.90
12504;DHT22;6316;48.118;-1.690;2023-06-26T01:30:42;19.30;94.90
12504;DHT22;6316;48.118;-1.690;2023-06-26T01:33:09;19.30;95.00
12504;DHT22;6316;48.118;-1.690;2023-06-26T01:35:35;19.30;95.00
12504;DHT22;6316;48.118;-1.690;2023-06-26T01:38:16;19.20;95.00
12504;DHT22;6316;48.118;-1.690;2023-06-26T01:40:41;19.30;95.00
12504;DHT22;6316;48.118;-1.690;2023-06-26T01:45:48;19.20;95.00
12504;DHT22;6316;48.118;-1.690;2023-06-26T01:48:16;19.20;95.00
12504;DHT22;6316;48.118;-1.690;2023-06-26T01:50:45;19.10;95.00
12504;DHT22;6316;48.118;-1.690;2023-06-26T01:53:15;19.10;95.00
12504;DHT22;6316;48.118;-1.690;2023-06-26T01:55:50;19.00;95.00
12504;DHT22;6316;48.118;-1.690;2023-06-26T01:58:17;19.00;95.10
12504;DHT22;6316;48.118;-1.690;2023-06-26T02:00:44;18.90;95.00
12504;DHT22;6316;48.118;-1.690;2023-06-26T02:03:09;18.90;95.10
12504;DHT22;6316;48.118;-1.690;2023-06-26T02:05:35;18.90;95.10
12504;DHT22;6316;48.118;-1.690;2023-06-26T02:08:00;18.90;95.10
12504;DHT22;6316;48.118;-1.690;2023-06-26T02:10:28;18.80;95.10
12504;DHT22;6316;48.118;-1.690;2023-06-26T02:12:53;18.80;95.10
12504;DHT22;6316;48.118;-1.690;2023-06-26T02:15:19;18.80;95.20
12504;DHT22;6316;48.118;-1.690;2023-06-26T02:17:45;18.70;95.20
12504;DHT22;6316;48.118;-1.690;2023-06-26T02:20:16;18.70;95.20
12504;DHT22;6316;48.118;-1.690;2023-06-26T02:22:42;18.60;95.20
12504;DHT22;6316;48.118;-1.690;2023-06-26T02:25:09;18.70;95.20
12504;DHT22;6316;48.118;-1.690;2023-06-26T02:27:35;18.60;95.20
12504;DHT22;6316;48.118;-1.690;2023-06-26T02:30:01;18.60;95.20
12504;DHT22;6316;48.118;-1.690;2023-06-26T02:32:27;18.60;95.30
12504;DHT22;6316;48.118;-1.690;2023-06-26T02:34:53;18.50;95.30
12504;DHT22;6316;48.118;-1.690;2023-06-26T02:37:19;18.50;95.30
12504;DHT22;6316;48.118;-1.690;2023-06-26T02:39:45;18.50;95.30
12504;DHT22;6316;48.118;-1.690;2023-06-26T02:42:10;18.50;95.30
12504;DHT22;6316;48.118;-1.690;2023-06-26T02:44:36;18.40;95.40
12504;DHT22;6316;48.118;-1.690;2023-06-26T02:47:02;18.40;95.40
12504;DHT22;6316;48.118;-1.690;2023-06-26T02:49:27;18.40;95.40
12504;DHT22;6316;48.118;-1.690;2023-06-26T02:51:53;18.40;95.40
12504;DHT22;6316;48.118;-1.690;2023-06-26T02:54:18;18.40;95.40
12504;DHT22;6316;48.118;-1.690;2023-06-26T02:56:44;18.30;95.40
12504;DHT22;6316;48.118;-1.690;2023-06-26T02:59:10;18.30;95.40
12504;DHT22;6316;48.118;-1.690;2023-06-26T03:01:35;18.30;95.40
12504;DHT22;6316;48.118;-1.690;2023-06-26T03:04:01;18.20;95.40
12504;DHT22;6316;48.118;-1.690;2023-06-26T03:06:27;18.20;95.50
12504;DHT22;6316;48.118;-1.690;2023-06-26T03:08:53;18.20;95.50
12504;DHT22;6316;48.118;-1.690;2023-06-26T03:11:19;18.20;95.60
12504;DHT22;6316;48.118;-1.690;2023-06-26T03:13:45;18.20;95.60
12504;DHT22;6316;48.118;-1.690;2023-06-26T03:16:11;18.20;95.60
12504;DHT22;6316;48.118;-1.690;2023-06-26T03:18:36;18.10;95.60
12504;DHT22;6316;48.118;-1.690;2023-06-26T03:21:02;18.10;95.60
12504;DHT22;6316;48.118;-1.690;2023-06-26T03:23:28;18.10;95.60
12504;DHT22;6316;48.118;-1.690;2023-06-26T03:25:53;18.10;95.60
12504;DHT22;6316;48.118;-1.690;2023-06-26T03:28:19;18.10;95.70
12504;DHT22;6316;48.118;-1.690;2023-06-26T03:30:45;18.10;95.70
12504;DHT22;6316;48.118;-1.690;2023-06-26T03:33:11;18.00;95.70
12504;DHT22;6316;48.118;-1.690;2023-06-26T03:35:37;18.00;95.70
12504;DHT22;6316;48.118;-1.690;2023-06-26T03:38:03;18.00;95.70
12504;DHT22;6316;48.118;-1.690;2023-06-26T03:40:29;18.00;95.70
12504;DHT22;6316;48.118;-1.690;2023-06-26T03:42:55;18.00;95.70
12504;DHT22;6316;48.118;-1.690;2023-06-26T03:45:20;18.00;95.80
12504;DHT22;6316;48.118;-1.690;2023-06-26T03:47:46;17.90;95.80
12504;DHT22;6316;48.118;-1.690;2023-06-26T03:50:16;17.90;95.80
12504;DHT22;6316;48.118;-1.690;2023-06-26T03:52:41;17.90;95.80
12504;DHT22;6316;48.118;-1.690;2023-06-26T03:55:07;17.90;95.80
12504;DHT22;6316;48.118;-1.690;2023-06-26T03:57:33;17.90;95.80
12504;DHT22;6316;48.118;-1.690;2023-06-26T03:59:59;17.90;95.90
12504;DHT22;6316;48.118;-1.690;2023-06-26T04:02:25;17.80;95.90
12504;DHT22;6316;48.118;-1.690;2023-06-26T04:04:50;17.80;95.90
12504;DHT22;6316;48.118;-1.690;2023-06-26T04:07:17;17.80;95.90
12504;DHT22;6316;48.118;-1.690;2023-06-26T04:09:43;17.80;96.00
12504;DHT22;6316;48.118;-1.690;2023-06-26T04:12:09;17.70;96.00
12504;DHT22;6316;48.118;-1.690;2023-06-26T04:14:35;17.70;96.30
12504;DHT22;6316;48.118;-1.690;2023-06-26T04:17:00;17.70;96.00
12504;DHT22;6316;48.118;-1.690;2023-06-26T04:19:29;17.60;96.00
12504;DHT22;6316;48.118;-1.690;2023-06-26T04:21:56;17.70;96.10
12504;DHT22;6316;48.118;-1.690;2023-06-26T04:24:22;17.70;96.10
12504;DHT22;6316;48.118;-1.690;2023-06-26T04:26:47;17.60;96.10
12504;DHT22;6316;48.118;-1.690;2023-06-26T04:29:14;17.60;96.10
12504;DHT22;6316;48.118;-1.690;2023-06-26T04:31:40;17.60;96.10
12504;DHT22;6316;48.118;-1.690;2023-06-26T04:34:05;17.60;96.10
12504;DHT22;6316;48.118;-1.690;2023-06-26T04:36:31;17.60;96.50
12504;DHT22;6316;48.118;-1.690;2023-06-26T04:38:58;17.70;96.20
12504;DHT22;6316;48.118;-1.690;2023-06-26T04:41:24;17.70;96.20
12504;DHT22;6316;48.118;-1.690;2023-06-26T04:43:50;17.70;96.20
12504;DHT22;6316;48.118;-1.690;2023-06-26T04:46:16;17.70;96.20
12504;DHT22;6316;48.118;-1.690;2023-06-26T04:48:42;17.70;96.30
12504;DHT22;6316;48.118;-1.690;2023-06-26T04:51:10;17.70;96.30
12504;DHT22;6316;48.118;-1.690;2023-06-26T04:53:35;17.70;96.30
12504;DHT22;6316;48.118;-1.690;2023-06-26T04:56:01;17.80;96.30
12504;DHT22;6316;48.118;-1.690;2023-06-26T04:58:27;17.80;96.30
12504;DHT22;6316;48.118;-1.690;2023-06-26T05:00:52;17.80;96.30
12504;DHT22;6316;48.118;-1.690;2023-06-26T05:03:18;17.80;96.30
12504;DHT22;6316;48.118;-1.690;2023-06-26T05:05:44;17.80;96.30
12504;DHT22;6316;48.118;-1.690;2023-06-26T05:08:21;17.80;96.30
12504;DHT22;6316;48.118;-1.690;2023-06-26T05:10:47;17.90;96.40
12504;DHT22;6316;48.118;-1.690;2023-06-26T05:13:13;17.90;96.40
12504;DHT22;6316;48.118;-1.690;2023-06-26T05:15:45;17.90;96.40
12504;DHT22;6316;48.118;-1.690;2023-06-26T05:18:11;17.90;96.40
12504;DHT22;6316;48.118;-1.690;2023-06-26T05:20:38;18.00;96.40
12504;DHT22;6316;48.118;-1.690;2023-06-26T05:23:04;18.00;96.40
12504;DHT22;6316;48.118;-1.690;2023-06-26T05:25:31;18.00;96.40
12504;DHT22;6316;48.118;-1.690;2023-06-26T05:27:58;18.10;96.50
12504;DHT22;6316;48.118;-1.690;2023-06-26T05:30:25;18.10;96.50
12504;DHT22;6316;48.118;-1.690;2023-06-26T05:32:52;18.10;96.50
12504;DHT22;6316;48.118;-1.690;2023-06-26T05:35:20;18.10;96.50
12504;DHT22;6316;48.118;-1.690;2023-06-26T05:37:49;18.20;96.50
12504;DHT22;6316;48.118;-1.690;2023-06-26T05:40:19;18.20;96.50
12504;DHT22;6316;48.118;-1.690;2023-06-26T05:42:45;18.20;96.50
12504;DHT22;6316;48.118;-1.690;2023-06-26T05:45:10;18.30;96.50
12504;DHT22;6316;48.118;-1.690;2023-06-26T05:47:36;18.30;96.50
12504;DHT22;6316;48.118;-1.690;2023-06-26T05:50:03;18.40;96.50
12504;DHT22;6316;48.118;-1.690;2023-06-26T05:52:29;18.40;96.50
12504;DHT22;6316;48.118;-1.690;2023-06-26T05:54:56;18.50;96.50
12504;DHT22;6316;48.118;-1.690;2023-06-26T05:57:28;18.50;96.50
12504;DHT22;6316;48.118;-1.690;2023-06-26T05:59:54;18.60;96.60
12504;DHT22;6316;48.118;-1.690;2023-06-26T06:02:20;18.60;96.50
12504;DHT22;6316;48.118;-1.690;2023-06-26T06:04:46;18.70;96.50
12504;DHT22;6316;48.118;-1.690;2023-06-26T06:07:12;18.80;96.50
12504;DHT22;6316;48.118;-1.690;2023-06-26T06:09:38;18.90;96.50
12504;DHT22;6316;48.118;-1.690;2023-06-26T06:12:05;18.90;96.50
12504;DHT22;6316;48.118;-1.690;2023-06-26T06:14:34;19.00;96.50
12504;DHT22;6316;48.118;-1.690;2023-06-26T06:17:01;19.10;96.50
12504;DHT22;6316;48.118;-1.690;2023-06-26T06:19:26;19.20;96.50
12504;DHT22;6316;48.118;-1.690;2023-06-26T06:21:52;19.30;96.50
12504;DHT22;6316;48.118;-1.690;2023-06-26T06:24:19;19.40;96.50
12504;DHT22;6316;48.118;-1.690;2023-06-26T06:26:44;19.40;96.40
12504;DHT22;6316;48.118;-1.690;2023-06-26T06:29:10;19.50;96.50
12504;DHT22;6316;48.118;-1.690;2023-06-26T06:31:36;19.50;96.40
12504;DHT22;6316;48.118;-1.690;2023-06-26T06:34:01;19.60;96.40
12504;DHT22;6316;48.118;-1.690;2023-06-26T06:36:27;19.70;96.40
12504;DHT22;6316;48.118;-1.690;2023-06-26T06:38:53;19.80;96.40
12504;DHT22;6316;48.118;-1.690;2023-06-26T06:41:20;19.90;96.40
12504;DHT22;6316;48.118;-1.690;2023-06-26T06:43:46;20.50;96.60
12504;DHT22;6316;48.118;-1.690;2023-06-26T06:46:12;21.30;96.60
12504;DHT22;6316;48.118;-1.690;2023-06-26T06:48:37;22.40;96.30
12504;DHT22;6316;48.118;-1.690;2023-06-26T06:51:03;23.50;95.70
12504;DHT22;6316;48.118;-1.690;2023-06-26T06:53:29;24.60;95.30
12504;DHT22;6316;48.118;-1.690;2023-06-26T06:55:54;25.70;94.30
12504;DHT22;6316;48.118;-1.690;2023-06-26T06:58:20;26.70;93.70
12504;DHT22;6316;48.118;-1.690;2023-06-26T07:00:46;27.60;93.20
12504;DHT22;6316;48.118;-1.690;2023-06-26T07:03:11;28.40;93.00
12504;DHT22;6316;48.118;-1.690;2023-06-26T07:05:37;29.10;92.20
12504;DHT22;6316;48.118;-1.690;2023-06-26T07:08:03;29.70;91.90
12504;DHT22;6316;48.118;-1.690;2023-06-26T07:10:29;30.40;91.70
12504;DHT22;6316;48.118;-1.690;2023-06-26T07:12:55;30.90;91.40
12504;DHT22;6316;48.118;-1.690;2023-06-26T07:15:21;31.20;91.20
12504;DHT22;6316;48.118;-1.690;2023-06-26T07:17:47;31.30;91.10
12504;DHT22;6316;48.118;-1.690;2023-06-26T07:20:12;31.40;91.20
12504;DHT22;6316;48.118;-1.690;2023-06-26T07:22:41;31.50;91.20
12504;DHT22;6316;48.118;-1.690;2023-06-26T07:25:07;31.50;91.20
12504;DHT22;6316;48.118;-1.690;2023-06-26T07:27:40;31.80;91.30
12504;DHT22;6316;48.118;-1.690;2023-06-26T07:30:07;32.10;91.10
12504;DHT22;6316;48.118;-1.690;2023-06-26T07:32:36;32.30;90.90
12504;DHT22;6316;48.118;-1.690;2023-06-26T07:35:02;32.30;91.00
12504;DHT22;6316;48.118;-1.690;2023-06-26T07:37:28;32.20;90.90
12504;DHT22;6316;48.118;-1.690;2023-06-26T07:39:53;32.10;91.20
12504;DHT22;6316;48.118;-1.690;2023-06-26T07:42:19;32.30;91.10
12504;DHT22;6316;48.118;-1.690;2023-06-26T07:44:45;32.70;90.90
12504;DHT22;6316;48.118;-1.690;2023-06-26T07:47:11;32.90;90.70
12504;DHT22;6316;48.118;-1.690;2023-06-26T07:49:36;33.20;90.60
12504;DHT22;6316;48.118;-1.690;2023-06-26T07:52:03;33.70;90.30
12504;DHT22;6316;48.118;-1.690;2023-06-26T07:54:29;34.10;90.10
12504;DHT22;6316;48.118;-1.690;2023-06-26T07:57:03;34.20;89.90
12504;DHT22;6316;48.118;-1.690;2023-06-26T07:59:30;34.30;89.70
12504;DHT22;6316;48.118;-1.690;2023-06-26T08:01:57;34.40;89.40
12504;DHT22;6316;48.118;-1.690;2023-06-26T08:04:24;34.40;89.10
12504;DHT22;6316;48.118;-1.690;2023-06-26T08:06:54;34.30;89.10
12504;DHT22;6316;48.118;-1.690;2023-06-26T08:09:21;34.50;89.10
12504;DHT22;6316;48.118;-1.690;2023-06-26T08:11:48;34.80;88.70
12504;DHT22;6316;48.118;-1.690;2023-06-26T08:14:15;35.10;88.30
12504;DHT22;6316;48.118;-1.690;2023-06-26T08:16:41;35.50;88.10
12504;DHT22;6316;48.118;-1.690;2023-06-26T08:19:07;36.00;87.50
12504;DHT22;6316;48.118;-1.690;2023-06-26T08:21:33;36.40;86.90
12504;DHT22;6316;48.118;-1.690;2023-06-26T08:23:59;36.40;86.50
12504;DHT22;6316;48.118;-1.690;2023-06-26T08:26:24;36.30;86.70
12504;DHT22;6316;48.118;-1.690;2023-06-26T08:28:50;36.30;86.70
12504;DHT22;6316;48.118;-1.690;2023-06-26T08:31:16;36.50;86.50
12504;DHT22;6316;48.118;-1.690;2023-06-26T08:33:42;36.50;86.30
12504;DHT22;6316;48.118;-1.690;2023-06-26T08:36:07;36.30;86.20
12504;DHT22;6316;48.118;-1.690;2023-06-26T08:38:33;36.00;86.40
12504;DHT22;6316;48.118;-1.690;2023-06-26T08:40:59;35.80;86.40
12504;DHT22;6316;48.118;-1.690;2023-06-26T08:43:26;35.30;86.50
12504;DHT22;6316;48.118;-1.690;2023-06-26T08:45:52;35.30;86.90
12504;DHT22;6316;48.118;-1.690;2023-06-26T08:48:18;34.90;86.60
12504;DHT22;6316;48.118;-1.690;2023-06-26T08:50:48;34.20;87.10
12504;DHT22;6316;48.118;-1.690;2023-06-26T08:55:44;34.10;87.60
12504;DHT22;6316;48.118;-1.690;2023-06-26T08:58:10;34.20;87.40
12504;DHT22;6316;48.118;-1.690;2023-06-26T09:00:38;34.30;87.10
12504;DHT22;6316;48.118;-1.690;2023-06-26T09:03:04;33.90;87.90
12504;DHT22;6316;48.118;-1.690;2023-06-26T09:05:30;33.10;87.20
12504;DHT22;6316;48.118;-1.690;2023-06-26T09:07:59;32.20;87.70
12504;DHT22;6316;48.118;-1.690;2023-06-26T09:10:25;31.50;88.30
12504;DHT22;6316;48.118;-1.690;2023-06-26T09:12:50;31.10;88.90
12504;DHT22;6316;48.118;-1.690;2023-06-26T09:15:20;31.10;89.50
12504;DHT22;6316;48.118;-1.690;2023-06-26T09:17:47;31.30;89.10
12504;DHT22;6316;48.118;-1.690;2023-06-26T09:20:13;31.20;88.80
12504;DHT22;6316;48.118;-1.690;2023-06-26T09:22:42;31.10;88.70
12504;DHT22;6316;48.118;-1.690;2023-06-26T09:25:09;31.20;88.30
12504;DHT22;6316;48.118;-1.690;2023-06-26T09:27:35;31.50;88.00
12504;DHT22;6316;48.118;-1.690;2023-06-26T09:30:05;31.70;87.40
12504;DHT22;6316;48.118;-1.690;2023-06-26T09:32:38;31.90;86.50
12504;DHT22;6316;48.118;-1.690;2023-06-26T09:35:04;31.70;85.90
12504;DHT22;6316;48.118;-1.690;2023-06-26T09:37:29;31.40;85.50
12504;DHT22;6316;48.118;-1.690;2023-06-26T09:39:55;31.10;85.80
12504;DHT22;6316;48.118;-1.690;2023-06-26T09:42:21;30.90;85.70
12504;DHT22;6316;48.118;-1.690;2023-06-26T09:44:47;30.60;85.70
12504;DHT22;6316;48.118;-1.690;2023-06-26T09:47:16;30.50;85.80
12504;DHT22;6316;48.118;-1.690;2023-06-26T09:49:43;30.40;85.70
12504;DHT22;6316;48.118;-1.690;2023-06-26T09:52:09;30.30;85.50
12504;DHT22;6316;48.118;-1.690;2023-06-26T09:54:34;30.10;85.40
12504;DHT22;6316;48.118;-1.690;2023-06-26T09:57:31;30.00;85.40
12504;DHT22;6316;48.118;-1.690;2023-06-26T09:59:59;29.60;85.30
12504;DHT22;6316;48.118;-1.690;2023-06-26T10:02:25;29.20;85.50
12504;DHT22;6316;48.118;-1.690;2023-06-26T10:04:51;28.90;85.60
12504;DHT22;6316;48.118;-1.690;2023-06-26T10:07:16;28.70;85.80
12504;DHT22;6316;48.118;-1.690;2023-06-26T10:09:45;28.40;85.90
12504;DHT22;6316;48.118;-1.690;2023-06-26T10:12:21;28.00;86.10
12504;DHT22;6316;48.118;-1.690;2023-06-26T10:14:48;27.70;86.40
12504;DHT22;6316;48.118;-1.690;2023-06-26T10:17:17;27.30;86.50
12504;DHT22;6316;48.118;-1.690;2023-06-26T10:19:45;27.00;86.80
12504;DHT22;6316;48.118;-1.690;2023-06-26T10:22:15;26.90;86.90
12504;DHT22;6316;48.118;-1.690;2023-06-26T10:24:43;26.80;86.70
12504;DHT22;6316;48.118;-1.690;2023-06-26T10:27:37;26.80;86.70
12504;DHT22;6316;48.118;-1.690;2023-06-26T10:30:08;26.80;86.50
12504;DHT22;6316;48.118;-1.690;2023-06-26T10:32:35;26.90;86.50
12504;DHT22;6316;48.118;-1.690;2023-06-26T10:35:01;26.90;86.20
12504;DHT22;6316;48.118;-1.690;2023-06-26T10:37:45;26.80;86.00
12504;DHT22;6316;48.118;-1.690;2023-06-26T10:40:12;26.80;85.90
12504;DHT22;6316;48.118;-1.690;2023-06-26T10:42:40;27.00;86.00
12504;DHT22;6316;48.118;-1.690;2023-06-26T10:47:36;27.00;85.80
12504;DHT22;6316;48.118;-1.690;2023-06-26T10:50:19;27.00;85.60
12504;DHT22;6316;48.118;-1.690;2023-06-26T10:52:45;26.90;85.50
12504;DHT22;6316;48.118;-1.690;2023-06-26T10:55:10;26.70;85.20
12504;DHT22;6316;48.118;-1.690;2023-06-26T10:57:36;26.50;85.10
12504;DHT22;6316;48.118;-1.690;2023-06-26T11:00:10;26.40;85.20
12504;DHT22;6316;48.118;-1.690;2023-06-26T11:02:50;26.30;85.20
12504;DHT22;6316;48.118;-1.690;2023-06-26T11:05:32;26.30;85.20
12504;DHT22;6316;48.118;-1.690;2023-06-26T11:08:09;26.20;85.20
12504;DHT22;6316;48.118;-1.690;2023-06-26T11:10:53;26.20;85.30
12504;DHT22;6316;48.118;-1.690;2023-06-26T11:13:20;26.20;85.20
12504;DHT22;6316;48.118;-1.690;2023-06-26T11:15:47;26.20;85.10
12504;DHT22;6316;48.118;-1.690;2023-06-26T11:18:13;26.30;85.10
12504;DHT22;6316;48.118;-1.690;2023-06-26T11:20:40;26.20;85.00
12504;DHT22;6316;48.118;-1.690;2023-06-26T11:23:10;26.30;85.00
12504;DHT22;6316;48.118;-1.690;2023-06-26T11:25:37;26.30;84.90
12504;DHT22;6316;48.118;-1.690;2023-06-26T11:28:04;26.30;84.70
12504;DHT22;6316;48.118;-1.690;2023-06-26T11:30:31;26.30;84.70
12504;DHT22;6316;48.118;-1.690;2023-06-26T11:33:07;26.30;84.70
12504;DHT22;6316;48.118;-1.690;2023-06-26T11:35:33;26.40;85.50
12504;DHT22;6316;48.118;-1.690;2023-06-26T11:38:02;26.40;84.50
12504;DHT22;6316;48.118;-1.690;2023-06-26T11:40:34;26.50;84.50
12504;DHT22;6316;48.118;-1.690;2023-06-26T11:43:01;26.50;84.40
12504;DHT22;6316;48.118;-1.690;2023-06-26T11:45:29;26.50;84.30
12504;DHT22;6316;48.118;-1.690;2023-06-26T11:47:56;26.50;84.20
12504;DHT22;6316;48.118;-1.690;2023-06-26T11:50:22;26.50;84.20
12504;DHT22;6316;48.118;-1.690;2023-06-26T11:52:55;26.50;84.10
12504;DHT22;6316;48.118;-1.690;2023-06-26T11:55:23;26.40;84.00
12504;DHT22;6316;48.118;-1.690;2023-06-26T11:57:50;26.30;84.00
12504;DHT22;6316;48.118;-1.690;2023-06-26T12:00:16;26.20;84.10
12504;DHT22;6316;48.118;-1.690;2023-06-26T12:02:44;26.10;84.20
12504;DHT22;6316;48.118;-1.690;2023-06-26T12:05:10;25.90;84.10
12504;DHT22;6316;48.118;-1.690;2023-06-26T12:07:37;25.90;84.30
12504;DHT22;6316;48.118;-1.690;2023-06-26T12:10:03;26.00;84.30
12504;DHT22;6316;48.118;-1.690;2023-06-26T12:12:31;26.00;84.20
12504;DHT22;6316;48.118;-1.690;2023-06-26T12:14:57;26.00;84.00
12504;DHT22;6316;48.118;-1.690;2023-06-26T12:17:23;26.00;84.00
12504;DHT22;6316;48.118;-1.690;2023-06-26T12:19:50;26.00;83.90
12504;DHT22;6316;48.118;-1.690;2023-06-26T12:22:17;25.90;83.80
12504;DHT22;6316;48.118;-1.690;2023-06-26T12:24:44;25.90;83.80
12504;DHT22;6316;48.118;-1.690;2023-06-26T12:27:11;26.00;83.80
12504;DHT22;6316;48.118;-1.690;2023-06-26T12:29:39;26.00;83.70
12504;DHT22;6316;48.118;-1.690;2023-06-26T12:32:08;26.10;83.80
12504;DHT22;6316;48.118;-1.690;2023-06-26T12:34:38;26.10;83.60
12504;DHT22;6316;48.118;-1.690;2023-06-26T12:37:07;26.00;83.40
12504;DHT22;6316;48.118;-1.690;2023-06-26T12:39:51;26.00;83.40
12504;DHT22;6316;48.118;-1.690;2023-06-26T12:42:27;26.00;83.40
12504;DHT22;6316;48.118;-1.690;2023-06-26T12:44:54;26.20;83.50
12504;DHT22;6316;48.118;-1.690;2023-06-26T12:47:27;26.30;83.40
12504;DHT22;6316;48.118;-1.690;2023-06-26T12:49:54;26.50;83.30
12504;DHT22;6316;48.118;-1.690;2023-06-26T12:52:20;26.70;83.00
12504;DHT22;6316;48.118;-1.690;2023-06-26T12:54:46;26.70;82.80
12504;DHT22;6316;48.118;-1.690;2023-06-26T12:57:13;26.80;82.80
12504;DHT22;6316;48.118;-1.690;2023-06-26T12:59:42;26.90;82.60
12504;DHT22;6316;48.118;-1.690;2023-06-26T13:02:09;27.00;82.60
12504;DHT22;6316;48.118;-1.690;2023-06-26T13:04:36;27.10;82.50
12504;DHT22;6316;48.118;-1.690;2023-06-26T13:07:05;27.10;82.30
12504;DHT22;6316;48.118;-1.690;2023-06-26T13:09:35;27.00;81.90
12504;DHT22;6316;48.118;-1.690;2023-06-26T13:12:02;26.80;82.00
12504;DHT22;6316;48.118;-1.690;2023-06-26T13:14:29;26.70;82.20
12504;DHT22;6316;48.118;-1.690;2023-06-26T13:16:55;26.70;82.20
12504;DHT22;6316;48.118;-1.690;2023-06-26T13:19:20;26.80;82.20
12504;DHT22;6316;48.118;-1.690;2023-06-26T13:21:47;26.90;82.10
12504;DHT22;6316;48.118;-1.690;2023-06-26T13:24:12;27.00;81.90
12504;DHT22;6316;48.118;-1.690;2023-06-26T13:26:38;27.00;81.80
12504;DHT22;6316;48.118;-1.690;2023-06-26T13:29:04;26.80;81.80
12504;DHT22;6316;48.118;-1.690;2023-06-26T13:31:31;26.70;81.90
12504;DHT22;6316;48.118;-1.690;2023-06-26T13:34:01;26.60;82.10
12504;DHT22;6316;48.118;-1.690;2023-06-26T13:36:29;26.50;82.10
12504;DHT22;6316;48.118;-1.690;2023-06-26T13:38:54;26.40;81.80
12504;DHT22;6316;48.118;-1.690;2023-06-26T13:41:25;26.40;81.90
12504;DHT22;6316;48.118;-1.690;2023-06-26T13:43:52;26.40;81.80
12504;DHT22;6316;48.118;-1.690;2023-06-26T13:46:18;26.40;81.60
12504;DHT22;6316;48.118;-1.690;2023-06-26T13:48:44;26.50;81.40
12504;DHT22;6316;48.118;-1.690;2023-06-26T13:51:10;26.50;81.30
12504;DHT22;6316;48.118;-1.690;2023-06-26T13:53:36;26.40;81.10
12504;DHT22;6316;48.118;-1.690;2023-06-26T13:56:01;26.20;81.10
12504;DHT22;6316;48.118;-1.690;2023-06-26T13:58:27;26.10;81.20
12504;DHT22;6316;48.118;-1.690;2023-06-26T14:00:55;26.10;81.20
12504;DHT22;6316;48.118;-1.690;2023-06-26T14:03:21;26.10;81.10
12504;DHT22;6316;48.118;-1.690;2023-06-26T14:05:47;26.10;80.80
12504;DHT22;6316;48.118;-1.690;2023-06-26T14:08:13;26.10;80.80
12504;DHT22;6316;48.118;-1.690;2023-06-26T14:10:39;25.90;80.70
12504;DHT22;6316;48.118;-1.690;2023-06-26T14:13:04;25.70;80.70
12504;DHT22;6316;48.118;-1.690;2023-06-26T14:15:30;25.60;80.90
12504;DHT22;6316;48.118;-1.690;2023-06-26T14:17:56;25.60;81.00
12504;DHT22;6316;48.118;-1.690;2023-06-26T14:20:22;25.70;81.70
12504;DHT22;6316;48.118;-1.690;2023-06-26T14:22:49;25.80;80.90
12504;DHT22;6316;48.118;-1.690;2023-06-26T14:25:15;25.90;80.80
12504;DHT22;6316;48.118;-1.690;2023-06-26T14:27:42;26.00;80.50
12504;DHT22;6316;48.118;-1.690;2023-06-26T14:30:08;25.90;80.50
12504;DHT22;6316;48.118;-1.690;2023-06-26T14:32:34;25.90;80.40
12504;DHT22;6316;48.118;-1.690;2023-06-26T14:35:00;25.80;80.50
12504;DHT22;6316;48.118;-1.690;2023-06-26T14:37:26;25.60;80.60
12504;DHT22;6316;48.118;-1.690;2023-06-26T14:39:52;25.40;80.80
12504;DHT22;6316;48.118;-1.690;2023-06-26T14:42:18;25.30;80.80
12504;DHT22;6316;48.118;-1.690;2023-06-26T14:44:44;25.40;80.80
12504;DHT22;6316;48.118;-1.690;2023-06-26T14:47:12;25.40;80.60
12504;DHT22;6316;48.118;-1.690;2023-06-26T14:49:38;25.60;80.60
12504;DHT22;6316;48.118;-1.690;2023-06-26T14:52:04;25.70;80.40
12504;DHT22;6316;48.118;-1.690;2023-06-26T14:54:30;25.90;80.30
12504;DHT22;6316;48.118;-1.690;2023-06-26T14:56:57;26.10;80.10
12504;DHT22;6316;48.118;-1.690;2023-06-26T14:59:23;26.20;80.00
12504;DHT22;6316;48.118;-1.690;2023-06-26T15:01:48;26.30;79.90
12504;DHT22;6316;48.118;-1.690;2023-06-26T15:04:14;26.40;79.80
12504;DHT22;6316;48.118;-1.690;2023-06-26T15:06:39;26.40;79.60
12504;DHT22;6316;48.118;-1.690;2023-06-26T15:09:05;26.50;79.70
12504;DHT22;6316;48.118;-1.690;2023-06-26T15:11:31;26.60;79.70
12504;DHT22;6316;48.118;-1.690;2023-06-26T15:13:57;26.60;79.60
12504;DHT22;6316;48.118;-1.690;2023-06-26T15:16:23;26.70;79.60
12504;DHT22;6316;48.118;-1.690;2023-06-26T15:18:48;26.80;79.60
12504;DHT22;6316;48.118;-1.690;2023-06-26T15:21:14;26.80;79.50
12504;DHT22;6316;48.118;-1.690;2023-06-26T15:23:39;26.80;79.50
12504;DHT22;6316;48.118;-1.690;2023-06-26T15:26:05;26.80;79.50
12504;DHT22;6316;48.118;-1.690;2023-06-26T15:28:31;26.70;79.50
12504;DHT22;6316;48.118;-1.690;2023-06-26T15:30:56;26.60;79.50
12504;DHT22;6316;48.118;-1.690;2023-06-26T15:33:22;26.60;79.60
12504;DHT22;6316;48.118;-1.690;2023-06-26T15:35:48;26.60;79.60
12504;DHT22;6316;48.118;-1.690;2023-06-26T15:38:13;26.50;79.60